createdAt,value
2023-05-08T00:01:05.728Z,98103.94
2023-05-08T00:03:35.490Z,98091.22
2023-05-08T00:06:08.038Z,98093.69
2023-05-08T00:08:37.451Z,98091.56
2023-05-08T00:11:06.897Z,98086.75
2023-05-08T00:13:36.388Z,98092.41
2023-05-08T00:16:06.033Z,98096.78
2023-05-08T00:18:35.097Z,98094.59
2023-05-08T00:21:04.912Z,98089.53
2023-05-08T00:23:34.517Z,98092.22
2023-05-08T00:26:03.653Z,98083.09
2023-05-08T00:28:32.903Z,98090.88
2023-05-08T00:31:05.640Z,98095.78
2023-05-08T00:33:35.280Z,98099.28
2023-05-08T00:36:05.786Z,98094.97
2023-05-08T00:38:36.881Z,98094.16
2023-05-08T00:41:06.079Z,98086.59
2023-05-08T00:43:36.272Z,98086.88
2023-05-08T00:46:06.708Z,98081.75
2023-05-08T00:48:37.373Z,98075.28
2023-05-08T00:51:09.796Z,98083.09
2023-05-08T00:53:41.067Z,98081.47
2023-05-08T00:56:14.243Z,98089.06
2023-05-08T00:58:45.039Z,98089.06
2023-05-08T01:01:15.057Z,98083.13
2023-05-08T01:03:45.994Z,98082.06
2023-05-08T01:06:15.633Z,98070.19
2023-05-08T01:08:47.858Z,98082.56
2023-05-08T01:11:45.770Z,98081.47
2023-05-08T01:14:36.289Z,98091.16
2023-05-08T01:17:20.741Z,98091.09
2023-05-08T01:20:20.563Z,98092.16
2023-05-08T01:23:10.582Z,98099.09
2023-05-08T01:25:48.492Z,98098.53
2023-05-08T01:28:34.677Z,98094.13
2023-05-08T01:31:29.481Z,98090.31
2023-05-08T01:34:10.164Z,98091.34
2023-05-08T01:36:39.338Z,98097.28
2023-05-08T01:39:28.821Z,98099.34
2023-05-08T01:42:06.728Z,98102.53
2023-05-08T01:44:45.343Z,98103.31
2023-05-08T01:47:17.145Z,98099.69
2023-05-08T01:49:50.693Z,98096.81
2023-05-08T01:52:51.843Z,98091.22
2023-05-08T01:55:33.363Z,98103.91
2023-05-08T01:58:05.991Z,98107.53
2023-05-08T02:00:35.612Z,98107.66
2023-05-08T02:03:09.632Z,98110.19
2023-05-08T02:05:40.524Z,98107.19
2023-05-08T02:08:15.279Z,98120.66
2023-05-08T02:10:47.351Z,98115.19
2023-05-08T02:13:20.254Z,98110.78
2023-05-08T02:15:51.685Z,98112.00
2023-05-08T02:18:23.541Z,98106.09
2023-05-08T02:20:55.515Z,98100.94
2023-05-08T02:23:27.758Z,98107.97
2023-05-08T02:25:58.511Z,98099.22
2023-05-08T02:28:30.903Z,98104.53
2023-05-08T02:31:02.297Z,98110.97
2023-05-08T02:33:32.550Z,98100.88
2023-05-08T02:36:03.960Z,98091.00
2023-05-08T02:38:33.884Z,98107.03
2023-05-08T02:41:07.723Z,98095.22
2023-05-08T02:43:37.805Z,98095.03
2023-05-08T02:46:25.239Z,98100.38
2023-05-08T02:49:09.464Z,98093.19
2023-05-08T02:52:02.643Z,98088.69
2023-05-08T02:54:38.043Z,98091.69
2023-05-08T02:57:29.807Z,98093.75
2023-05-08T03:00:15.471Z,98087.69
2023-05-08T03:03:29.857Z,98099.84
2023-05-08T03:06:01.573Z,98099.06
2023-05-08T03:08:34.357Z,98096.50
2023-05-08T03:11:09.994Z,98097.81
2023-05-08T03:13:43.484Z,98098.03
2023-05-08T03:16:19.356Z,98099.88
2023-05-08T03:19:07.010Z,98096.03
2023-05-08T03:21:39.017Z,98092.16
2023-05-08T03:24:10.743Z,98099.59
2023-05-08T03:26:40.153Z,98100.22
2023-05-08T03:29:09.832Z,98108.16
2023-05-08T03:31:40.867Z,98110.47
2023-05-08T03:34:13.314Z,98110.47
2023-05-08T03:36:43.494Z,98120.56
2023-05-08T03:39:13.724Z,98118.84
2023-05-08T03:41:43.465Z,98122.59
2023-05-08T03:44:13.615Z,98122.59
2023-05-08T03:46:44.674Z,98127.94
2023-05-08T03:49:16.320Z,98133.28
2023-05-08T03:51:46.859Z,98133.69
2023-05-08T03:54:17.072Z,98140.00
2023-05-08T03:56:47.069Z,98142.84
2023-05-08T03:59:23.299Z,98144.59
2023-05-08T04:02:38.811Z,98149.22
2023-05-08T04:05:35.874Z,98150.53
2023-05-08T04:08:53.611Z,98153.84
2023-05-08T04:12:15.735Z,98158.31
2023-05-08T04:15:01.913Z,98159.97
2023-05-08T04:17:53.475Z,98164.38
2023-05-08T04:20:26.290Z,98150.34
2023-05-08T04:22:57.300Z,98153.19
2023-05-08T04:25:28.494Z,98158.25
2023-05-08T04:27:58.822Z,98157.66
2023-05-08T04:30:29.886Z,98151.91
2023-05-08T04:33:01.568Z,98158.22
2023-05-08T04:35:31.386Z,98153.81
2023-05-08T04:38:01.543Z,98155.97
2023-05-08T04:40:30.946Z,98152.38
2023-05-08T04:43:00.708Z,98145.38
2023-05-08T04:45:30.476Z,98154.69
2023-05-08T04:47:59.639Z,98155.06
2023-05-08T04:50:28.928Z,98157.63
2023-05-08T04:52:58.530Z,98160.50
2023-05-08T04:55:28.062Z,98158.41
2023-05-08T04:57:57.212Z,98163.19
2023-05-08T05:00:26.664Z,98164.66
2023-05-08T05:02:56.163Z,98164.78
2023-05-08T05:05:25.610Z,98158.66
2023-05-08T05:07:55.346Z,98161.41
2023-05-08T05:10:24.914Z,98157.94
2023-05-08T05:12:54.744Z,98160.44
2023-05-08T05:15:24.280Z,98161.47
2023-05-08T05:17:53.616Z,98158.88
2023-05-08T05:20:22.979Z,98165.28
2023-05-08T05:22:52.455Z,98167.66
2023-05-08T05:25:21.789Z,98163.03
2023-05-08T05:27:51.393Z,98164.34
2023-05-08T05:30:20.597Z,98170.97
2023-05-08T05:32:50.533Z,98174.06
2023-05-08T05:35:19.649Z,98170.91
2023-05-08T05:37:49.008Z,98174.75
2023-05-08T05:40:19.565Z,98165.28
2023-05-08T05:42:52.286Z,98171.34
2023-05-08T05:45:23.035Z,98173.25
2023-05-08T05:47:55.140Z,98171.22
2023-05-08T05:50:28.415Z,98177.22
2023-05-08T05:52:59.308Z,98172.78
2023-05-08T05:55:29.403Z,98168.63
2023-05-08T05:58:00.344Z,98167.25
2023-05-08T06:00:29.894Z,98166.22
2023-05-08T06:02:59.644Z,98162.38
2023-05-08T06:05:30.044Z,98161.81
2023-05-08T06:08:00.661Z,98155.78
2023-05-08T06:10:32.020Z,98157.50
2023-05-08T06:13:01.284Z,98158.50
2023-05-08T06:15:31.947Z,98161.56
2023-05-08T06:18:01.337Z,98162.78
2023-05-08T06:20:30.586Z,98161.44
2023-05-08T06:23:00.514Z,98169.09
2023-05-08T06:25:29.696Z,98161.38
2023-05-08T06:27:59.096Z,98161.63
2023-05-08T06:30:28.432Z,98162.63
2023-05-08T06:32:57.815Z,98159.97
2023-05-08T06:35:27.402Z,98157.66
2023-05-08T06:37:56.576Z,98161.00
2023-05-08T06:40:26.180Z,98160.84
2023-05-08T06:42:55.354Z,98159.56
2023-05-08T06:45:25.221Z,98155.31
2023-05-08T06:47:54.767Z,98153.50
2023-05-08T06:50:24.140Z,98156.69
2023-05-08T06:52:53.451Z,98150.63
2023-05-08T06:55:22.709Z,98152.44
2023-05-08T06:57:52.390Z,98147.78
2023-05-08T07:00:21.951Z,98148.44
2023-05-08T07:02:51.312Z,98138.31
2023-05-08T07:05:21.579Z,98152.44
2023-05-08T07:07:50.836Z,98141.25
2023-05-08T07:10:22.286Z,98132.91
2023-05-08T07:12:52.350Z,98133.56
2023-05-08T07:15:26.160Z,98125.78
2023-05-08T07:17:56.438Z,98127.13
2023-05-08T07:20:26.099Z,98127.97
2023-05-08T07:22:55.397Z,98121.25
2023-05-08T07:25:25.490Z,98121.38
2023-05-08T07:27:54.777Z,98121.91
2023-05-08T07:30:24.181Z,98114.31
2023-05-08T07:32:53.480Z,98124.72
2023-05-08T07:35:23.380Z,98120.41
2023-05-08T07:37:52.413Z,98121.91
2023-05-08T07:40:21.831Z,98114.78
2023-05-08T07:42:50.893Z,98119.41
2023-05-08T07:45:20.389Z,98120.47
2023-05-08T07:47:55.516Z,98124.72
2023-05-08T07:50:26.678Z,98120.47
2023-05-08T07:52:56.520Z,98125.66
2023-05-08T07:55:25.615Z,98115.38
2023-05-08T07:57:54.889Z,98120.13
2023-05-08T08:00:24.236Z,98117.81
2023-05-08T08:02:53.990Z,98117.00
2023-05-08T08:05:23.616Z,98119.59
2023-05-08T08:07:53.209Z,98112.84
2023-05-08T08:10:23.105Z,98121.63
2023-05-08T08:12:52.254Z,98115.75
2023-05-08T08:15:21.609Z,98116.50
2023-05-08T08:17:50.809Z,98101.75
2023-05-08T08:20:20.213Z,98104.22
2023-05-08T08:22:50.510Z,98091.25
2023-05-08T08:25:19.599Z,98100.38
2023-05-08T08:27:48.934Z,98096.69
2023-05-08T08:30:18.921Z,98098.44
2023-05-08T08:32:48.503Z,98090.50
2023-05-08T08:35:18.488Z,98086.38
2023-05-08T08:37:48.330Z,98090.19
2023-05-08T08:40:17.357Z,98082.66
2023-05-08T08:42:48.259Z,98082.56
2023-05-08T08:45:18.106Z,98086.63
2023-05-08T08:47:49.785Z,98075.44
2023-05-08T08:50:21.727Z,98081.06
2023-05-08T08:53:00.260Z,98084.69
2023-05-08T08:55:31.001Z,98076.53
2023-05-08T08:58:20.383Z,98086.81
2023-05-08T09:00:51.035Z,98086.16
2023-05-08T09:03:20.684Z,98080.38
2023-05-08T09:05:50.448Z,98085.88
2023-05-08T09:08:20.541Z,98080.72
2023-05-08T09:10:50.007Z,98078.69
2023-05-08T09:13:20.492Z,98073.25
2023-05-08T09:15:52.685Z,98071.69
2023-05-08T09:18:22.371Z,98080.06
2023-05-08T09:20:52.546Z,98076.03
2023-05-08T09:23:22.590Z,98072.22
2023-05-08T09:25:52.169Z,98071.63
2023-05-08T09:28:28.664Z,98069.56
2023-05-08T09:30:59.943Z,98075.81
2023-05-08T09:33:30.596Z,98068.09
2023-05-08T09:36:00.258Z,98067.97
2023-05-08T09:38:43.053Z,98068.31
2023-05-08T09:41:17.084Z,98079.34
2023-05-08T09:44:01.292Z,98074.06
2023-05-08T09:46:31.702Z,98055.34
2023-05-08T09:49:03.207Z,98061.31
2023-05-08T09:51:34.058Z,98057.81
2023-05-08T09:54:07.516Z,98060.66
2023-05-08T09:56:40.873Z,98064.34
2023-05-08T09:59:28.075Z,98056.19
2023-05-08T10:01:58.029Z,98047.38
2023-05-08T10:04:35.029Z,98059.06
2023-05-08T10:07:05.345Z,98054.72
2023-05-08T10:09:46.974Z,98058.25
2023-05-08T10:12:20.133Z,98052.19
2023-05-08T10:14:49.369Z,98056.84
2023-05-08T10:17:29.055Z,98050.75
2023-05-08T10:20:05.382Z,98057.97
2023-05-08T10:22:39.391Z,98051.59
2023-05-08T10:25:17.964Z,98044.50
2023-05-08T10:28:07.410Z,98050.28
2023-05-08T10:30:44.366Z,98050.91
2023-05-08T10:33:17.187Z,98047.06
2023-05-08T10:35:47.719Z,98041.47
2023-05-08T10:38:19.070Z,98037.56
2023-05-08T10:40:52.015Z,98034.25
2023-05-08T10:43:22.056Z,98041.97
2023-05-08T10:45:52.189Z,98038.25
2023-05-08T10:48:39.874Z,98032.69
2023-05-08T10:51:34.628Z,98029.00
2023-05-08T10:54:20.493Z,98028.66
2023-05-08T10:56:50.823Z,98035.88
2023-05-08T10:59:21.878Z,98030.44
2023-05-08T11:01:51.720Z,98033.81
2023-05-08T11:04:30.107Z,98024.53
2023-05-08T11:07:00.916Z,98022.91
2023-05-08T11:09:48.946Z,98016.03
2023-05-08T11:12:32.678Z,98020.84
2023-05-08T11:15:07.580Z,98022.59
2023-05-08T11:17:37.186Z,98023.56
2023-05-08T11:20:08.570Z,98014.75
2023-05-08T11:22:39.279Z,98025.97
2023-05-08T11:25:09.106Z,98021.81
2023-05-08T11:27:39.746Z,98014.75
2023-05-08T11:30:37.858Z,98013.97
2023-05-08T11:33:09.711Z,98022.94
2023-05-08T11:35:42.303Z,98017.16
2023-05-08T11:38:31.535Z,98018.09
2023-05-08T11:41:06.620Z,98020.31
2023-05-08T11:43:38.487Z,98012.78
2023-05-08T11:46:15.037Z,98019.97
2023-05-08T11:48:44.754Z,98017.91
2023-05-08T11:51:14.976Z,98019.97
2023-05-08T11:53:46.186Z,98021.41
2023-05-08T11:56:15.852Z,98019.34
2023-05-08T11:58:45.286Z,98018.38
2023-05-08T12:01:22.118Z,98019.50
2023-05-08T12:04:01.018Z,98025.88
2023-05-08T12:06:35.010Z,98021.56
2023-05-08T12:09:06.361Z,98024.94
2023-05-08T12:11:36.423Z,98021.28
2023-05-08T12:14:05.784Z,98018.56
2023-05-08T12:16:39.416Z,98022.38
2023-05-08T12:19:13.840Z,98027.50
2023-05-08T12:21:50.534Z,98026.56
2023-05-08T12:24:26.628Z,98021.41
2023-05-08T12:26:57.513Z,98026.19
2023-05-08T12:29:29.694Z,98030.81
2023-05-08T12:32:00.546Z,98025.03
2023-05-08T12:34:30.276Z,98034.13
2023-05-08T12:37:06.543Z,98031.66
2023-05-08T12:39:38.891Z,98035.97
2023-05-08T12:42:08.675Z,98037.38
2023-05-08T12:44:38.070Z,98025.53
2023-05-08T12:47:07.697Z,98037.53
2023-05-08T12:49:39.393Z,98037.53
2023-05-08T12:52:13.701Z,98038.94
2023-05-08T12:54:49.514Z,98041.00
2023-05-08T12:57:22.446Z,98037.00
2023-05-08T12:59:53.173Z,98044.97
2023-05-08T13:02:28.207Z,98043.19
2023-05-08T13:04:58.122Z,98052.44
2023-05-08T13:07:33.644Z,98060.41
2023-05-08T13:10:06.739Z,98051.47
2023-05-08T13:12:35.953Z,98067.59
2023-05-08T13:15:06.060Z,98067.41
2023-05-08T13:17:35.553Z,98062.09
2023-05-08T13:20:06.297Z,98072.63
2023-05-08T13:22:36.129Z,98078.06
2023-05-08T13:25:05.515Z,98081.41
2023-05-08T13:27:34.754Z,98079.31
2023-05-08T13:30:03.940Z,98081.53
2023-05-08T13:32:33.476Z,98090.31
2023-05-08T13:35:02.539Z,98101.84
2023-05-08T13:37:32.472Z,98099.25
2023-05-08T13:40:02.297Z,98094.94
2023-05-08T13:42:31.360Z,98106.09
2023-05-08T13:45:01.672Z,98108.81
2023-05-08T13:47:30.898Z,98106.38
2023-05-08T13:50:00.118Z,98117.84
2023-05-08T13:52:31.822Z,98109.50
2023-05-08T13:55:01.255Z,98122.09
2023-05-08T13:57:30.327Z,98124.75
2023-05-08T14:00:00.017Z,98124.56
2023-05-08T14:02:29.585Z,98129.47
2023-05-08T14:04:59.384Z,98135.22
2023-05-08T14:07:29.171Z,98135.41
2023-05-08T14:09:58.696Z,98136.69
2023-05-08T14:12:28.385Z,98145.34
2023-05-08T14:14:58.016Z,98146.16
2023-05-08T14:17:27.380Z,98147.75
2023-05-08T14:19:57.245Z,98144.25
2023-05-08T14:22:26.777Z,98153.78
2023-05-08T14:24:55.979Z,98157.94
2023-05-08T14:27:25.269Z,98161.47
2023-05-08T14:29:55.238Z,98165.56
2023-05-08T14:32:24.909Z,98174.31
2023-05-08T14:34:54.316Z,98170.28
2023-05-08T14:37:23.438Z,98176.22
2023-05-08T14:39:55.427Z,98177.16
2023-05-08T14:42:24.652Z,98175.53
2023-05-08T14:44:54.350Z,98185.91
2023-05-08T14:47:24.926Z,98189.72
2023-05-08T14:49:54.984Z,98199.25
2023-05-08T14:52:24.995Z,98202.28
2023-05-08T14:54:54.480Z,98205.91
2023-05-08T14:57:24.247Z,98208.91
2023-05-08T14:59:55.328Z,98204.91
2023-05-08T15:02:26.202Z,98206.00
2023-05-08T15:04:55.604Z,98208.53
2023-05-08T15:07:29.486Z,98206.91
2023-05-08T15:09:59.132Z,98210.00
2023-05-08T15:12:28.578Z,98224.09
2023-05-08T15:14:58.233Z,98209.53
2023-05-08T15:17:27.774Z,98219.06
2023-05-08T15:19:56.860Z,98223.97
2023-05-08T15:22:34.046Z,98222.66
2023-05-08T15:25:03.801Z,98224.06
2023-05-08T15:27:33.555Z,98220.06
2023-05-08T15:30:02.822Z,98225.25
2023-05-08T15:32:32.257Z,98231.47
2023-05-08T15:35:01.471Z,98232.91
2023-05-08T15:37:30.615Z,98240.75
2023-05-08T15:40:00.806Z,98242.72
2023-05-08T15:42:30.079Z,98242.53
2023-05-08T15:44:59.804Z,98247.72
2023-05-08T15:47:29.084Z,98253.56
2023-05-08T15:49:58.354Z,98251.44
2023-05-08T15:52:27.539Z,98260.34
2023-05-08T15:54:56.798Z,98263.19
2023-05-08T15:57:28.467Z,98262.38
2023-05-08T15:59:57.732Z,98265.16
2023-05-08T16:02:26.878Z,98269.25
2023-05-08T16:04:56.464Z,98270.94
2023-05-08T16:07:25.589Z,98279.69
2023-05-08T16:09:54.721Z,98274.88
2023-05-08T16:12:23.948Z,98284.69
2023-05-08T16:14:53.331Z,98289.59
2023-05-08T16:17:22.460Z,98288.53
2023-05-08T16:19:51.938Z,98289.94
2023-05-08T16:22:21.029Z,98289.69
2023-05-08T16:24:51.087Z,98294.56
2023-05-08T16:27:20.188Z,98293.53
2023-05-08T16:29:50.165Z,98292.72
2023-05-08T16:32:19.365Z,98291.19
2023-05-08T16:34:48.660Z,98286.94
2023-05-08T16:37:17.641Z,98288.63
2023-05-08T16:39:47.324Z,98296.25
2023-05-08T16:42:16.408Z,98288.19
2023-05-08T16:44:46.258Z,98298.50
2023-05-08T16:47:16.198Z,98293.19
2023-05-08T16:49:46.306Z,98298.34
2023-05-08T16:52:15.532Z,98304.13
2023-05-08T16:54:44.756Z,98304.72
2023-05-08T16:57:13.912Z,98305.00
2023-05-08T16:59:43.638Z,98312.91
2023-05-08T17:02:16.822Z,98315.09
2023-05-08T17:04:48.966Z,98312.16
2023-05-08T17:07:19.457Z,98295.41
2023-05-08T17:09:54.176Z,98305.44
2023-05-08T17:12:23.924Z,98301.94
2023-05-08T17:14:53.594Z,98307.34
2023-05-08T17:17:22.830Z,98306.81
2023-05-08T17:19:52.335Z,98298.19
2023-05-08T17:22:22.805Z,98293.31
2023-05-08T17:24:52.465Z,98303.63
2023-05-08T17:27:21.672Z,98307.38
2023-05-08T17:29:50.782Z,98306.56
2023-05-08T17:32:20.509Z,98299.31
2023-05-08T17:34:49.840Z,98314.16
2023-05-08T17:37:18.870Z,98313.44
2023-05-08T17:39:48.498Z,98309.09
2023-05-08T17:42:17.469Z,98307.22
2023-05-08T17:44:46.899Z,98303.97
2023-05-08T17:47:16.048Z,98307.00
2023-05-08T17:49:45.339Z,98291.63
2023-05-08T17:52:14.309Z,98297.03
2023-05-08T17:54:43.684Z,98296.50
2023-05-08T17:57:12.763Z,98292.50
2023-05-08T17:59:43.231Z,98296.28
2023-05-08T18:02:12.925Z,98288.16
2023-05-08T18:04:42.310Z,98288.44
2023-05-08T18:07:12.813Z,98289.53
2023-05-08T18:09:42.145Z,98287.94
2023-05-08T18:12:12.051Z,98287.13
2023-05-08T18:14:41.443Z,98287.41
2023-05-08T18:17:12.890Z,98277.47
2023-05-08T18:19:42.592Z,98291.78
2023-05-08T18:22:14.863Z,98279.34
2023-05-08T18:24:44.481Z,98286.66
2023-05-08T18:27:13.749Z,98281.84
2023-05-08T18:29:43.295Z,98283.22
2023-05-08T18:32:13.080Z,98284.31
2023-05-08T18:34:42.736Z,98282.19
2023-05-08T18:37:11.993Z,98276.53
2023-05-08T18:39:41.154Z,98280.09
2023-05-08T18:42:10.377Z,98290.91
2023-05-08T18:44:39.664Z,98294.22
2023-05-08T18:47:09.063Z,98293.66
2023-05-08T18:49:38.662Z,98301.28
2023-05-08T18:52:07.807Z,98297.75
2023-05-08T18:54:37.042Z,98294.84
2023-05-08T18:57:06.303Z,98290.78
2023-05-08T18:59:35.869Z,98287.84
2023-05-08T19:02:05.090Z,98279.25
2023-05-08T19:04:34.529Z,98283.03
2023-05-08T19:07:03.615Z,98275.47
2023-05-08T19:09:34.793Z,98268.44
2023-05-08T19:12:04.322Z,98261.44
2023-05-08T19:14:34.404Z,98259.00
2023-05-08T19:17:03.645Z,98260.94
2023-05-08T19:19:32.905Z,98262.81
2023-05-08T19:22:02.411Z,98253.91
2023-05-08T19:24:32.955Z,98261.69
2023-05-08T19:27:02.507Z,98264.94
2023-05-08T19:29:33.106Z,98263.63
2023-05-08T19:32:04.402Z,98269.31
2023-05-08T19:34:34.199Z,98273.38
2023-05-08T19:37:04.060Z,98278.53
2023-05-08T19:39:33.226Z,98276.41
2023-05-08T19:42:02.833Z,98271.53
2023-05-08T19:44:33.913Z,98265.88
2023-05-08T19:47:04.159Z,98259.41
2023-05-08T19:49:34.065Z,98260.47
2023-05-08T19:52:03.267Z,98265.59
2023-05-08T19:54:32.885Z,98264.81
2023-05-08T19:57:01.878Z,98266.41
2023-05-08T19:59:31.326Z,98244.25
2023-05-08T20:02:00.425Z,98244.56
2023-05-08T20:04:30.263Z,98247.00
2023-05-08T20:06:59.441Z,98244.63
2023-05-08T20:09:28.966Z,98244.09
2023-05-08T20:11:58.391Z,98230.88
2023-05-08T20:14:27.767Z,98225.75
2023-05-08T20:16:56.733Z,98221.16
2023-05-08T20:19:29.105Z,98221.16
2023-05-08T20:21:58.584Z,98238.41
2023-05-08T20:24:27.626Z,98243.59
2023-05-08T20:26:57.425Z,98253.28
2023-05-08T20:29:28.070Z,98258.41
2023-05-08T20:31:57.327Z,98266.00
2023-05-08T20:34:26.427Z,98267.59
2023-05-08T20:36:57.448Z,98270.88
2023-05-08T20:39:26.878Z,98272.25
2023-05-08T20:41:55.907Z,98281.44
2023-05-08T20:44:25.460Z,98278.50
2023-05-08T20:46:54.929Z,98281.25
2023-05-08T20:49:24.016Z,98280.72
2023-05-08T20:51:53.348Z,98282.59
2023-05-08T20:54:22.700Z,98280.19
2023-05-08T20:56:51.888Z,98279.41
2023-05-08T20:59:21.208Z,98291.00
2023-05-08T21:01:50.500Z,98294.78
2023-05-08T21:04:19.846Z,98303.16
2023-05-08T21:06:50.269Z,98289.69
2023-05-08T21:09:21.368Z,98306.75
2023-05-08T21:11:50.593Z,98310.59
2023-05-08T21:14:19.812Z,98306.31
2023-05-08T21:16:50.191Z,98314.41
2023-05-08T21:19:19.825Z,98305.25
2023-05-08T21:21:48.967Z,98314.44
2023-05-08T21:24:18.190Z,98306.91
2023-05-08T21:26:47.630Z,98314.19
2023-05-08T21:29:17.176Z,98307.16
2023-05-08T21:31:46.297Z,98310.69
2023-05-08T21:34:16.898Z,98311.47
2023-05-08T21:36:46.236Z,98320.38
2023-05-08T21:39:15.896Z,98310.38
2023-05-08T21:41:45.752Z,98317.91
2023-05-08T21:44:16.444Z,98320.34
2023-05-08T21:46:46.145Z,98317.91
2023-05-08T21:49:15.162Z,98323.03
2023-05-08T21:51:47.491Z,98319.22
2023-05-08T21:54:16.807Z,98320.84
2023-05-08T21:56:45.822Z,98314.63
2023-05-08T21:59:15.407Z,98316.25
2023-05-08T22:01:45.300Z,98323.03
2023-05-08T22:04:14.659Z,98327.91
2023-05-08T22:06:44.364Z,98325.75
2023-05-08T22:09:13.805Z,98336.28
2023-05-08T22:11:42.990Z,98326.84
2023-05-08T22:14:12.165Z,98330.09
2023-05-08T22:16:43.543Z,98332.03
2023-05-08T22:19:12.842Z,98337.69
2023-05-08T22:21:42.207Z,98346.09
2023-05-08T22:24:13.446Z,98341.25
2023-05-08T22:26:47.217Z,98345.28
2023-05-08T22:29:18.253Z,98343.97
2023-05-08T22:31:48.984Z,98342.63
2023-05-08T22:34:18.228Z,98340.50
2023-05-08T22:36:47.368Z,98342.13
2023-05-08T22:39:16.642Z,98347.78
2023-05-08T22:41:45.755Z,98347.28
2023-05-08T22:44:15.353Z,98344.88
2023-05-08T22:46:44.961Z,98345.94
2023-05-08T22:49:14.095Z,98345.44
2023-05-08T22:51:43.229Z,98346.50
2023-05-08T22:54:12.404Z,98347.34
2023-05-08T22:56:41.517Z,98346.00
2023-05-08T22:59:10.594Z,98343.56
2023-05-08T23:01:40.554Z,98355.19
2023-05-08T23:04:09.708Z,98349.25
2023-05-08T23:06:38.889Z,98347.09
2023-05-08T23:09:08.123Z,98354.69
2023-05-08T23:11:37.384Z,98359.53
2023-05-08T23:14:06.420Z,98356.31
2023-05-08T23:16:36.061Z,98353.06
2023-05-08T23:19:05.523Z,98357.66
2023-05-08T23:21:44.515Z,98350.34
2023-05-08T23:24:14.534Z,98353.03
2023-05-08T23:26:43.651Z,98347.91
2023-05-08T23:29:12.930Z,98353.88
2023-05-08T23:31:41.950Z,98358.75
2023-05-08T23:34:11.369Z,98356.81
2023-05-08T23:36:40.591Z,98366.03
2023-05-08T23:39:10.060Z,98362.78
2023-05-08T23:41:39.766Z,98360.38
2023-05-08T23:44:09.501Z,98365.22
2023-05-08T23:46:38.800Z,98361.97
2023-05-08T23:49:09.196Z,98363.06
2023-05-08T23:51:38.768Z,98361.19
2023-05-08T23:54:08.021Z,98362.00
2023-05-08T23:56:37.226Z,98368.19
2023-05-08T23:59:06.487Z,98366.84
